| time (UTC) | temp F | wind direction | speed MPH | gust MPH | rain 1hr in | rain 24hr in | rain mn in | humidity % | barometer mb |
| 20260508104551 | 35 | 23 | 0.0 | 3.0 | 0.00 | 0.00 | 0.00 | 77 | 1014.9 |
| 20260508103049 | 36 | 190 | 0.0 | 2.0 | 0.00 | 0.00 | 0.00 | 81 | 1014.5 |
| 20260508101545 | 37 | 190 | 0.0 | 3.0 | 0.00 | 0.00 | 0.00 | 78 | 1014.2 |
| 20260508100044 | 37 | 190 | 1.0 | 3.0 | 0.00 | 0.00 | 0.00 | 77 | 1014.1 |
| 20260508094604 | 37 | 190 | 1.0 | 3.0 | 0.00 | 0.00 | 0.00 | 77 | 1014.2 |
| 20260508093040 | 37 | 190 | 1.0 | 2.0 | 0.00 | 0.00 | 0.00 | 78 | 1014.2 |
| 20260508091542 | 37 | 190 | 1.0 | 3.0 | 0.00 | 0.00 | 0.00 | 80 | 1014.5 |
| 20260508090038 | 37 | 190 | 0.0 | 2.0 | 0.00 | 0.00 | 0.00 | 79 | 1014.7 |
| 20260508084534 | 38 | 190 | 0.0 | 3.0 | 0.00 | 0.00 | 0.00 | 76 | 1014.6 |
| 20260508083034 | 39 | 190 | 0.0 | 3.0 | 0.00 | 0.00 | 0.00 | 72 | 1014.8 |
| 20260508081556 | 39 | 188 | 1.0 | 4.0 | 0.00 | 0.00 | 0.00 | 72 | 1014.8 |
| 20260508080032 | 38 | 188 | 0.0 | 2.0 | 0.00 | 0.00 | 0.00 | 75 | 1014.9 |
| 20260508074531 | 38 | 188 | 2.0 | 3.0 | 0.00 | 0.00 | 0.00 | 71 | 1014.9 |
| 20260508073032 | 37 | 188 | 2.0 | 4.0 | 0.00 | 0.00 | 0.00 | 74 | 1015.1 |
| 20260508071538 | 38 | 190 | 2.0 | 4.0 | 0.00 | 0.00 | 0.00 | 74 | 1015.5 |
| 20260508070024 | 38 | 192 | 2.0 | 4.0 | 0.00 | 0.00 | 0.00 | 74 | 1015.5 |
| 20260508064521 | 40 | 115 | 1.0 | 5.0 | 0.00 | 0.00 | 0.00 | 72 | 1015.5 |
| 20260508063031 | 41 | 194 | 2.0 | 4.0 | 0.00 | 0.00 | 0.00 | 70 | 1015.4 |
| 20260508061520 | 41 | 249 | 0.0 | 4.0 | 0.00 | 0.00 | 0.00 | 69 | 1015.5 |
| 20260508060015 | 39 | 168 | 1.0 | 5.0 | 0.00 | 0.00 | 0.00 | 78 | 1015.5 |
| 20260508054516 | 40 | 238 | 1.0 | 3.0 | 0.00 | 0.00 | 0.00 | 77 | 1015.6 |
| 20260508053016 | 41 | 238 | 2.0 | 3.0 | 0.00 | 0.00 | 0.00 | 73 | 1015.6 |
| 20260508051514 | 42 | 239 | 1.0 | 4.0 | 0.00 | 0.00 | 0.00 | 66 | 1015.7 |
| 20260508050016 | 41 | 201 | 1.0 | 3.0 | 0.00 | 0.00 | 0.00 | 70 | 1016.0 |
| 20260508044513 | 42 | 214 | 0.0 | 4.0 | 0.00 | 0.00 | 0.00 | 68 | 1016.0 |
| 20260508043012 | 41 | 194 | 1.0 | 5.0 | 0.00 | 0.00 | 0.00 | 69 | 1015.8 |
| 20260508041512 | 41 | 167 | 2.0 | 5.0 | 0.00 | 0.00 | 0.00 | 70 | 1015.8 |
| 20260508040011 | 41 | 221 | 2.0 | 5.0 | 0.00 | 0.00 | 0.00 | 74 | 1015.7 |
| 20260508034512 | 40 | 167 | 2.0 | 4.0 | 0.00 | 0.00 | 0.00 | 83 | 1015.8 |
| 20260508033010 | 40 | 167 | 3.0 | 3.0 | 0.00 | 0.00 | 0.00 | 83 | 1015.7 |
| 20260508031510 | 41 | 170 | 1.0 | 3.0 | 0.00 | 0.00 | 0.00 | 84 | 1015.6 |
| 20260508030010 | 41 | 170 | 1.0 | 2.0 | 0.00 | 0.00 | 0.00 | 84 | 1015.4 |
| 20260508024512 | 41 | 170 | 0.0 | 4.0 | 0.00 | 0.00 | 0.00 | 83 | 1015.3 |
| 20260508023008 | 40 | 196 | 2.0 | 6.0 | 0.00 | 0.00 | 0.00 | 85 | 1015.0 |
| 20260508021507 | 41 | 111 | 0.0 | 2.0 | 0.00 | 0.00 | 0.00 | 85 | 1015.1 |
| 20260508020008 | 42 | 96 | 1.0 | 3.0 | 0.00 | 0.00 | 0.00 | 84 | 1014.9 |
| 20260508014509 | 42 | 84 | 0.0 | 3.0 | 0.00 | 0.00 | 0.00 | 84 | 1015.0 |
| 20260508013006 | 43 | 77 | 1.0 | 9.0 | 0.00 | 0.00 | 0.00 | 78 | 1014.9 |
| 20260508011506 | 46 | 261 | 2.0 | 9.0 | 0.00 | 0.00 | 0.00 | 73 | 1015.2 |
| 20260508010005 | 49 | 189 | 1.0 | 9.0 | 0.00 | 0.00 | 0.00 | 60 | 1015.0 |
| 20260508004505 | 51 | 205 | 2.0 | 6.0 | 0.00 | 0.00 | 0.00 | 55 | 1014.4 |
| 20260508003005 | 52 | 360 | 1.0 | 7.0 | 0.00 | 0.00 | 0.00 | 55 | 1014.5 |
| 20260508001502 | 52 | 58 | 3.0 | 8.0 | 0.00 | 0.00 | 0.00 | 55 | 1014.9 |
| 20260508000100 | 52 | 360 | 1.0 | 3.0 | 0.00 | 0.00 | 0.00 | 55 | 1015.1 |
| 20260507234559 | 53 | 26 | 1.0 | 9.0 | 0.00 | 0.00 | 0.00 | 54 | 1015.3 |
| 20260507233058 | 53 | 36 | 2.0 | 8.0 | 0.00 | 0.00 | 0.00 | 51 | 1015.4 |
| 20260507231559 | 52 | 44 | 2.0 | 6.0 | 0.00 | 0.00 | 0.00 | 51 | 1015.4 |
| 20260507224600 | 54 | 46 | 2.0 | 10.0 | 0.00 | 0.00 | 0.00 | 48 | 1015.1 |
| 20260507223056 | 56 | 33 | 2.0 | 11.0 | 0.00 | 0.00 | 0.00 | 48 | 1015.4 |
| 20260507221552 | 56 | 21 | 2.0 | 12.0 | 0.00 | 0.00 | 0.00 | 52 | 1015.7 |
| 20260507220049 | 55 | 351 | 2.0 | 10.0 | 0.00 | 0.00 | 0.00 | 51 | 1015.9 |
| 20260507214601 | 55 | 315 | 2.0 | 5.0 | 0.00 | 0.00 | 0.00 | 49 | 1016.1 |
| 20260507213045 | 55 | 99 | 2.0 | 10.0 | 0.00 | 0.00 | 0.00 | 55 | 1016.3 |
| 20260507211542 | 54 | 355 | 3.0 | 8.0 | 0.00 | 0.00 | 0.00 | 51 | 1016.6 |
| 20260507210040 | 53 | 21 | 1.0 | 4.0 | 0.00 | 0.00 | 0.00 | 54 | 1017.2 |
| 20260507204537 | 52 | 309 | 2.0 | 9.0 | 0.00 | 0.00 | 0.00 | 54 | 1017.7 |
| 20260507203040 | 51 | 355 | 1.0 | 10.0 | 0.00 | 0.00 | 0.00 | 58 | 1017.9 |
| 20260507201531 | 50 | 180 | 3.0 | 9.0 | 0.00 | 0.00 | 0.00 | 57 | 1018.3 |
| 20260507200029 | 49 | 336 | 1.0 | 9.0 | 0.00 | 0.00 | 0.00 | 61 | 1018.5 |
| 20260507194526 | 48 | 49 | 1.0 | 6.0 | 0.00 | 0.00 | 0.00 | 60 | 1018.8 |
| 20260507193023 | 47 | 205 | 2.0 | 5.0 | 0.00 | 0.00 | 0.00 | 60 | 1019.1 |
| 20260507191518 | 46 | 221 | 1.0 | 4.0 | 0.00 | 0.00 | 0.00 | 58 | 1019.7 |
| 20260507190016 | 47 | 86 | 1.0 | 5.0 | 0.00 | 0.00 | 0.00 | 58 | 1020.0 |
| 20260507184513 | 46 | 243 | 1.0 | 4.0 | 0.00 | 0.04 | 0.00 | 59 | 1020.3 |
| 20260507183013 | 45 | 53 | 0.0 | 4.0 | 0.00 | 0.04 | 0.00 | 59 | 1020.6 |
| 20260507181508 | 45 | 241 | 1.0 | 4.0 | 0.00 | 0.04 | 0.00 | 58 | 1021.0 |
| 20260507180006 | 44 | 227 | 1.0 | 5.0 | 0.00 | 0.04 | 0.00 | 57 | 1021.3 |
| 20260507174502 | 44 | 35 | 0.0 | 5.0 | 0.00 | 0.10 | 0.00 | 57 | 1021.5 |
| 20260507173103 | 43 | 65 | 2.0 | 7.0 | 0.00 | 0.10 | 0.00 | 61 | 1021.6 |
| 20260507171600 | 42 | 107 | 0.0 | 5.0 | 0.00 | 0.10 | 0.00 | 59 | 1021.8 |
| 20260507164559 | 39 | 161 | 1.0 | 5.0 | 0.00 | 0.19 | 0.00 | 63 | 1022.4 |
| 20260507163046 | 38 | 76 | 1.0 | 7.0 | 0.00 | 0.19 | 0.00 | 61 | 1022.7 |
| 20260507161543 | 37 | 319 | 0.0 | 4.0 | 0.00 | 0.19 | 0.00 | 65 | 1022.9 |
| 20260507160040 | 36 | 122 | 1.0 | 5.0 | 0.00 | 0.19 | 0.00 | 65 | 1022.9 |
| 20260507154542 | 36 | 306 | 0.0 | 3.0 | 0.00 | 0.20 | 0.00 | 65 | 1023.0 |
| 20260507153034 | 36 | 342 | 1.0 | 4.0 | 0.00 | 0.20 | 0.00 | 67 | 1023.0 |
| 20260507151529 | 34 | 331 | 1.0 | 3.0 | 0.00 | 0.20 | 0.00 | 67 | 1023.2 |
| 20260507150027 | 33 | 215 | 0.0 | 4.0 | 0.00 | 0.20 | 0.00 | 68 | 1023.3 |
| 20260507144529 | 32 | 26 | 0.0 | 4.0 | 0.00 | 0.21 | 0.00 | 81 | 1023.4 |
| 20260507143025 | 31 | 306 | 0.0 | 2.0 | 0.00 | 0.21 | 0.00 | 84 | 1023.6 |
| 20260507141515 | 29 | 198 | 1.0 | 2.0 | 0.00 | 0.21 | 0.00 | 86 | 1023.7 |
| 20260507140012 | 27 | 198 | 0.0 | 1.0 | 0.00 | 0.21 | 0.00 | 90 | 1024.0 |
| 20260507134511 | 26 | 198 | 0.0 | 1.0 | 0.00 | 0.21 | 0.00 | 92 | 1023.7 |
| 20260507133005 | 25 | 198 | 0.0 | 1.0 | 0.00 | 0.21 | 0.00 | 91 | 1023.5 |
| 20260507131504 | 24 | 198 | 0.0 | 2.0 | 0.00 | 0.21 | 0.00 | 91 | 1023.7 |
| 20260507130004 | 24 | 198 | 0.0 | 1.0 | 0.00 | 0.21 | 0.00 | 92 | 1023.4 |
| 20260507124505 | 23 | 198 | 0.0 | 0.0 | 0.00 | 0.21 | 0.00 | 91 | 1023.4 |
| 20260507123006 | 23 | 198 | 0.0 | 0.0 | 0.00 | 0.21 | 0.00 | 92 | 1023.4 |
| 20260507121503 | 23 | 200 | 0.0 | 2.0 | 0.00 | 0.21 | 0.00 | 91 | 1023.5 |
| 20260507120110 | 23 | 202 | 0.0 | 1.0 | 0.00 | 0.21 | 0.00 | 92 | 1023.5 |
| 20260507114501 | 22 | 204 | 0.0 | 2.0 | 0.00 | 0.21 | 0.00 | 92 | 1023.5 |
| 20260507113101 | 22 | 203 | 0.0 | 1.0 | 0.00 | 0.21 | 0.00 | 93 | 1023.6 |
| 20260507111603 | 22 | 204 | 0.0 | 0.0 | 0.00 | 0.21 | 0.00 | 91 | 1023.3 |
| 20260507110100 | 22 | 205 | 0.0 | 0.0 | 0.00 | 0.21 | 0.00 | 92 | 1023.7 |